Time;durP1;ratioP1;P1;durP2;ratioP2;P2;SDS_P1;SDS_P2;PMS_P1;PMS_P2;Temp;Humidity;BMP_temperature;BMP_pressure;BME280_temperature;BME280_humidity;BME280_pressure;Samples;Min_cycle;Max_cycle;Signal;HPM_P1;HPM_P2
2022/07/16 00:03:36;;;;;;;;;;;;;;;26.12;43.45;98211.31;5119863;28;19931;-61
2022/07/16 00:06:02;;;;;;;;;;;;;;;26.07;43.75;98209.63;5118180;28;20038;-61
2022/07/16 00:08:28;;;;;;;;;;;;;;;25.98;43.89;98211.75;5118436;28;20027;-60
2022/07/16 00:10:55;;;;;;;;;;;;;;;25.71;44.40;98199.81;5121666;28;19958;-60
2022/07/16 00:13:21;;;;;;;;;;;;;;;25.51;44.77;98208.28;5134894;27;19935;-61
2022/07/16 00:15:49;;;;;;;;;;;;;;;25.42;45.10;98200.22;5118196;28;20036;-60
2022/07/16 00:20:59;;;;;;;;;;;;;;;24.93;46.37;98204.41;5134103;27;19928;-60
2022/07/16 00:23:26;;;;;;;;;;;;;;;24.93;46.47;98201.66;5118424;28;20018;-62
2022/07/16 00:25:52;;;;;;;;;;;;;;;24.89;46.69;98208.97;5121721;28;19959;-61
2022/07/16 00:28:18;;;;;;;;;;;;;;;25.08;46.38;98200.91;5121567;28;19943;-63
2022/07/16 00:30:45;;;;;;;;;;;;;;;25.30;46.00;98207.72;5119934;28;19931;-60
2022/07/16 00:33:13;;;;;;;;;;;;;;;25.28;45.67;98199.88;5124563;28;19924;-61
2022/07/16 00:35:39;;;;;;;;;;;;;;;25.30;45.69;98197.59;5126820;28;20552;-61
2022/07/16 00:38:07;;;;;;;;;;;;;;;25.14;45.71;98196.75;5128030;28;19958;-61
2022/07/16 00:40:33;;;;;;;;;;;;;;;25.30;45.54;98194.03;5126617;28;20588;-60
2022/07/16 00:43:01;;;;;;;;;;;;;;;25.00;45.91;98194.47;5136318;27;19963;-59
2022/07/16 00:45:27;;;;;;;;;;;;;;;24.86;45.88;98201.47;5127283;28;19991;-60
2022/07/16 00:47:54;;;;;;;;;;;;;;;24.87;45.86;98200.34;5124437;28;19959;-60
2022/07/16 00:50:21;;;;;;;;;;;;;;;24.53;45.87;98202.50;5124218;28;19962;-60
2022/07/16 00:52:48;;;;;;;;;;;;;;;25.00;45.54;98191.75;5127756;28;19963;-60
2022/07/16 00:55:14;;;;;;;;;;;;;;;24.89;45.41;98203.50;5127911;28;19938;-60
2022/07/16 00:57:41;;;;;;;;;;;;;;;24.70;45.66;98198.66;5125604;28;19959;-62
2022/07/16 01:00:08;;;;;;;;;;;;;;;24.31;46.03;98203.03;5124501;28;19925;-63
2022/07/16 01:02:34;;;;;;;;;;;;;;;23.99;46.90;98203.97;5125660;28;19951;-62
2022/07/16 01:05:01;;;;;;;;;;;;;;;23.59;47.74;98201.94;5127613;28;19978;-61
2022/07/16 01:07:29;;;;;;;;;;;;;;;23.65;47.76;98206.03;5127013;28;19928;-61
2022/07/16 01:09:56;;;;;;;;;;;;;;;23.60;48.02;98203.53;5124322;28;19924;-60
2022/07/16 01:12:23;;;;;;;;;;;;;;;24.42;46.55;98195.13;5137442;27;19923;-59
2022/07/16 01:14:49;;;;;;;;;;;;;;;24.88;46.00;98196.47;5115801;28;19942;-61
2022/07/16 01:17:15;;;;;;;;;;;;;;;25.03;45.50;98195.72;5115631;28;19995;-60
2022/07/16 01:19:44;;;;;;;;;;;;;;;25.18;45.20;98201.19;5115051;28;20388;-60
2022/07/16 01:22:10;;;;;;;;;;;;;;;25.17;45.27;98201.53;5115581;28;19961;-62
2022/07/16 01:24:41;;;;;;;;;;;;;;;24.98;45.43;98206.88;5115485;28;20052;-61
2022/07/16 01:27:07;;;;;;;;;;;;;;;24.77;45.72;98203.53;5115692;28;19976;-60
2022/07/16 01:29:34;;;;;;;;;;;;;;;24.55;46.08;98208.41;5097366;28;19950;-60
2022/07/16 01:32:00;;;;;;;;;;;;;;;23.67;46.89;98219.34;5115633;28;19982;-61
2022/07/16 01:34:26;;;;;;;;;;;;;;;23.97;46.95;98209.78;5115108;28;19964;-60
2022/07/16 01:36:54;;;;;;;;;;;;;;;23.17;47.94;98210.63;5115425;28;19959;-61
2022/07/16 01:39:20;;;;;;;;;;;;;;;23.51;48.07;98205.59;5115196;28;19928;-60
2022/07/16 01:41:50;;;;;;;;;;;;;;;23.28;48.24;98204.38;5118516;27;20018;-60
2022/07/16 01:44:17;;;;;;;;;;;;;;;23.08;48.61;98205.25;5128549;27;19931;-61
2022/07/16 01:46:43;;;;;;;;;;;;;;;22.74;49.29;98202.88;5123664;28;19926;-60
2022/07/16 01:49:09;;;;;;;;;;;;;;;23.41;48.46;98208.75;5124234;28;19935;-61
2022/07/16 01:51:36;;;;;;;;;;;;;;;24.03;47.53;98221.25;5122390;28;19935;-61
2022/07/16 01:54:02;;;;;;;;;;;;;;;24.43;46.62;98202.19;5120574;28;19959;-60
2022/07/16 01:56:29;;;;;;;;;;;;;;;24.23;46.48;98201.25;5121139;28;19956;-60
2022/07/16 01:58:56;;;;;;;;;;;;;;;23.33;47.82;98206.09;5124114;28;19923;-60
2022/07/16 02:01:23;;;;;;;;;;;;;;;23.39;48.00;98204.75;5124015;28;19931;-61
2022/07/16 02:03:49;;;;;;;;;;;;;;;23.55;47.72;98198.28;5120325;28;19954;-60
2022/07/16 02:06:15;;;;;;;;;;;;;;;23.49;48.05;98199.66;5120400;28;20036;-61
2022/07/16 02:08:42;;;;;;;;;;;;;;;23.59;47.47;98210.13;5123218;28;19934;-60
2022/07/16 02:11:08;;;;;;;;;;;;;;;23.26;48.32;98209.38;5124076;28;19927;-61
2022/07/16 02:13:35;;;;;;;;;;;;;;;23.55;48.06;98202.97;5136123;27;20019;-61
2022/07/16 02:16:02;;;;;;;;;;;;;;;23.30;48.06;98206.78;5102281;28;20489;-60
2022/07/16 02:18:29;;;;;;;;;;;;;;;23.38;47.95;98209.41;5120784;28;19924;-61
2022/07/16 02:20:55;;;;;;;;;;;;;;;23.26;48.09;98220.28;5123618;28;19923;-59
2022/07/16 02:23:21;;;;;;;;;;;;;;;23.50;48.01;98214.09;5123828;28;19924;-61
2022/07/16 02:25:48;;;;;;;;;;;;;;;23.42;48.11;98220.47;5120302;28;19931;-62
2022/07/16 02:28:14;;;;;;;;;;;;;;;23.23;48.24;98207.34;5119967;28;20018;-60
2022/07/16 02:30:42;;;;;;;;;;;;;;;23.12;48.68;98215.13;5122390;28;19971;-60
2022/07/16 02:33:11;;;;;;;;;;;;;;;23.62;48.00;98217.63;5123532;28;19954;-60
2022/07/16 02:35:38;;;;;;;;;;;;;;;23.60;47.89;98211.72;5121405;28;19962;-60
2022/07/16 02:38:04;;;;;;;;;;;;;;;23.79;47.49;98215.81;5119928;28;19976;-60
2022/07/16 02:40:32;;;;;;;;;;;;;;;23.83;47.48;98216.72;5120814;28;20154;-62
2022/07/16 02:42:59;;;;;;;;;;;;;;;24.17;46.85;98214.31;5136918;27;19923;-61
2022/07/16 02:45:25;;;;;;;;;;;;;;;24.30;46.33;98206.88;5122764;28;19983;-60
2022/07/16 02:47:51;;;;;;;;;;;;;;;24.27;46.41;98214.97;5119607;28;20288;-61
2022/07/16 02:50:20;;;;;;;;;;;;;;;23.96;46.98;98210.09;5119577;28;19924;-60
2022/07/16 02:52:46;;;;;;;;;;;;;;;23.77;47.25;98209.91;5122732;28;19970;-60
2022/07/16 02:55:12;;;;;;;;;;;;;;;24.04;46.93;98217.38;5122687;28;19955;-61
2022/07/16 02:57:39;;;;;;;;;;;;;;;24.10;46.48;98216.00;5120718;28;20526;-61
2022/07/16 03:00:06;;;;;;;;;;;;;;;24.15;46.55;98218.53;5119603;28;20014;-61
2022/07/16 03:02:32;;;;;;;;;;;;;;;24.12;46.51;98211.03;5120281;28;20628;-60
2022/07/16 03:04:58;;;;;;;;;;;;;;;24.25;46.23;98203.59;5122718;28;19924;-61
2022/07/16 03:07:26;;;;;;;;;;;;;;;24.29;46.12;98216.22;5122378;28;19998;-61
2022/07/16 03:09:52;;;;;;;;;;;;;;;24.30;46.03;98206.88;5119163;28;19931;-60
2022/07/16 03:12:19;;;;;;;;;;;;;;;24.26;46.04;98211.47;5131305;27;19935;-61
2022/07/16 03:14:45;;;;;;;;;;;;;;;24.09;46.48;98215.22;5123198;27;19923;-61
2022/07/16 03:17:12;;;;;;;;;;;;;;;23.77;47.02;98218.09;5122419;28;19923;-61
2022/07/16 03:19:38;;;;;;;;;;;;;;;23.69;47.03;98216.25;5120398;28;19924;-59
2022/07/16 03:22:05;;;;;;;;;;;;;;;23.17;48.29;98216.06;5119155;28;19936;-60
2022/07/16 03:24:33;;;;;;;;;;;;;;;22.92;48.21;98215.19;5119805;28;19927;-60
2022/07/16 03:26:59;;;;;;;;;;;;;;;22.40;49.21;98223.81;5122633;28;19931;-62
2022/07/16 03:29:25;;;;;;;;;;;;;;;22.79;48.79;98221.72;5122469;28;19924;-59
2022/07/16 03:31:52;;;;;;;;;;;;;;;22.04;50.39;98229.00;5118922;28;19923;-60
2022/07/16 03:34:18;;;;;;;;;;;;;;;21.73;51.08;98231.22;5118891;28;19981;-60
2022/07/16 03:36:44;;;;;;;;;;;;;;;22.58;49.88;98227.19;5121886;28;19928;-61
2022/07/16 03:39:11;;;;;;;;;;;;;;;22.50;49.68;98226.13;5122214;28;19939;-61
2022/07/16 03:41:39;;;;;;;;;;;;;;;22.17;50.04;98229.88;5120707;28;19924;-60
2022/07/16 03:44:06;;;;;;;;;;;;;;;22.40;49.91;98225.72;5130863;27;19924;-60
2022/07/16 03:46:34;;;;;;;;;;;;;;;22.14;50.73;98234.06;5119542;28;19991;-60
2022/07/16 03:49:00;;;;;;;;;;;;;;;21.39;52.11;98230.25;5122074;28;19928;-61
2022/07/16 03:51:27;;;;;;;;;;;;;;;21.02;53.06;98230.97;5121355;28;19947;-59
2022/07/16 03:53:53;;;;;;;;;;;;;;;21.02;53.71;98230.97;5118449;28;19958;-60
2022/07/16 03:56:19;;;;;;;;;;;;;;;21.16;53.56;98241.69;5118374;28;20176;-59
2022/07/16 03:58:47;;;;;;;;;;;;;;;21.09;53.40;98244.09;5121472;28;19919;-60
2022/07/16 04:01:14;;;;;;;;;;;;;;;21.24;53.46;98246.28;5121744;28;19991;-60
2022/07/16 04:03:40;;;;;;;;;;;;;;;21.48;52.83;98250.03;5119449;28;19924;-61
2022/07/16 04:06:06;;;;;;;;;;;;;;;22.21;51.59;98245.22;5117411;28;19931;-59
2022/07/16 04:08:33;;;;;;;;;;;;;;;22.39;50.90;98252.16;5119092;28;19952;-60
2022/07/16 04:11:00;;;;;;;;;;;;;;;21.81;51.79;98252.16;5121511;28;19928;-60
2022/07/16 04:13:26;;;;;;;;;;;;;;;21.22;52.78;98252.06;5134909;27;19945;-60
2022/07/16 04:15:54;;;;;;;;;;;;;;;21.39;52.90;98243.84;5117978;28;19924;-60
2022/07/16 04:18:21;;;;;;;;;;;;;;;20.57;54.54;98256.91;5117817;28;19947;-60
2022/07/16 04:20:47;;;;;;;;;;;;;;;20.69;55.68;98254.34;5120933;28;20596;-60
2022/07/16 04:23:13;;;;;;;;;;;;;;;20.64;55.16;98257.22;5121241;28;19935;-60
2022/07/16 04:25:40;;;;;;;;;;;;;;;21.08;54.98;98248.69;5100646;28;20339;-60
2022/07/16 04:28:07;;;;;;;;;;;;;;;20.35;55.34;98260.56;5117650;28;20337;-61
2022/07/16 04:30:33;;;;;;;;;;;;;;;20.20;56.72;98255.56;5118916;28;19958;-60
2022/07/16 04:33:01;;;;;;;;;;;;;;;20.55;55.90;98256.44;5121139;28;19966;-60
2022/07/16 04:35:28;;;;;;;;;;;;;;;21.17;54.81;98248.72;5120591;28;19983;-60
2022/07/16 04:37:54;;;;;;;;;;;;;;;21.16;54.37;98247.94;5117503;28;19924;-60
2022/07/16 04:40:20;;;;;;;;;;;;;;;21.27;53.85;98257.31;5117384;28;19928;-60
2022/07/16 04:42:47;;;;;;;;;;;;;;;21.90;53.18;98244.78;5134324;28;19999;-60
2022/07/16 04:45:13;;;;;;;;;;;;;;;22.29;51.49;98252.53;5120964;28;19987;-61
2022/07/16 04:47:40;;;;;;;;;;;;;;;22.76;50.83;98260.53;5118710;28;20388;-61
2022/07/16 04:50:09;;;;;;;;;;;;;;;22.88;50.29;98247.75;5117728;28;19963;-59
2022/07/16 04:52:35;;;;;;;;;;;;;;;23.11;49.66;98251.72;5118916;28;19924;-59
2022/07/16 04:55:02;;;;;;;;;;;;;;;23.23;49.62;98256.38;5121162;28;19928;-60
2022/07/16 04:57:28;;;;;;;;;;;;;;;23.31;49.05;98255.47;5120444;28;20010;-60
2022/07/16 04:59:55;;;;;;;;;;;;;;;21.93;51.53;98263.16;5117559;28;19924;-61
2022/07/16 05:05:06;;;;;;;;;;;;;;;21.22;53.53;98267.56;5117450;28;19963;-61
2022/07/16 05:07:34;;;;;;;;;;;;;;;21.52;53.31;98271.94;5118317;28;19938;-61
2022/07/16 05:10:00;;;;;;;;;;;;;;;20.99;54.34;98270.44;5120856;28;19999;-61
2022/07/16 05:12:26;;;;;;;;;;;;;;;20.94;54.71;98281.47;5127761;28;19923;-60
2022/07/16 05:14:53;;;;;;;;;;;;;;;20.79;56.09;98286.59;5120967;28;19927;-59
2022/07/16 05:17:19;;;;;;;;;;;;;;;21.30;54.65;98274.88;5121901;28;19935;-60
2022/07/16 05:19:45;;;;;;;;;;;;;;;22.04;52.65;98276.06;5121441;28;19990;-61
2022/07/16 05:22:12;;;;;;;;;;;;;;;21.49;53.80;98278.03;5121137;28;19974;-60
2022/07/16 05:24:39;;;;;;;;;;;;;;;20.87;55.05;98288.50;5123006;28;19950;-59
2022/07/16 05:27:06;;;;;;;;;;;;;;;20.64;55.99;98287.09;5124446;28;19923;-59
2022/07/16 05:29:32;;;;;;;;;;;;;;;19.92;58.46;98284.84;5123186;28;19928;-61
2022/07/16 05:31:58;;;;;;;;;;;;;;;20.36;58.29;98286.59;5120853;28;19966;-59
2022/07/16 05:34:25;;;;;;;;;;;;;;;21.05;56.65;98283.84;5121001;28;19999;-60
2022/07/16 05:36:51;;;;;;;;;;;;;;;21.41;55.27;98276.94;5124624;28;19934;-60
2022/07/16 05:39:17;;;;;;;;;;;;;;;22.25;53.14;98286.97;5124246;28;19930;-60
2022/07/16 05:41:46;;;;;;;;;;;;;;;22.83;51.31;98282.56;5123972;27;19928;-60
2022/07/16 05:44:12;;;;;;;;;;;;;;;22.99;50.95;98291.72;5131329;27;19931;-61
2022/07/16 05:46:38;;;;;;;;;;;;;;;22.97;50.92;98277.63;5122539;28;19963;-61
2022/07/16 05:49:05;;;;;;;;;;;;;;;22.79;50.95;98287.88;5124161;28;19927;-61
2022/07/16 05:51:31;;;;;;;;;;;;;;;22.95;50.68;98285.34;5123060;28;19951;-60
2022/07/16 05:53:57;;;;;;;;;;;;;;;23.50;49.68;98274.88;5120861;28;20589;-60
2022/07/16 05:56:24;;;;;;;;;;;;;;;23.70;49.41;98277.84;5120476;28;19959;-61
2022/07/16 05:58:51;;;;;;;;;;;;;;;23.72;49.26;98281.03;5112268;28;19924;-60
2022/07/16 06:01:18;;;;;;;;;;;;;;;23.74;49.11;98278.78;5112029;28;19928;-60
2022/07/16 06:03:44;;;;;;;;;;;;;;;22.88;50.46;98283.16;5112137;28;19931;-60
2022/07/16 06:06:11;;;;;;;;;;;;;;;23.37;49.83;98286.84;5111703;28;19966;-60
2022/07/16 06:08:37;;;;;;;;;;;;;;;22.79;50.52;98292.53;5111670;28;19924;-59
2022/07/16 06:11:03;;;;;;;;;;;;;;;23.20;50.11;98286.22;5111978;28;19986;-61
2022/07/16 06:13:30;;;;;;;;;;;;;;;22.77;50.36;98292.88;5133976;27;19987;-60
2022/07/16 06:15:57;;;;;;;;;;;;;;;22.57;51.07;98283.53;5120121;28;19928;-60
2022/07/16 06:18:24;;;;;;;;;;;;;;;22.65;51.29;98292.00;5120144;28;20303;-60
2022/07/16 06:20:50;;;;;;;;;;;;;;;23.11;50.49;98292.56;5111591;28;20011;-60
2022/07/16 06:23:16;;;;;;;;;;;;;;;23.50;49.87;98291.22;5111579;28;19935;-60
2022/07/16 06:25:43;;;;;;;;;;;;;;;23.18;49.57;98300.19;5111640;28;19930;-60
2022/07/16 06:28:09;;;;;;;;;;;;;;;23.17;50.04;98290.44;5111385;28;20407;-61
2022/07/16 06:30:35;;;;;;;;;;;;;;;23.09;50.17;98300.28;5110890;28;19967;-60
2022/07/16 06:33:03;;;;;;;;;;;;;;;23.78;49.75;98291.38;5111348;28;19923;-60
2022/07/16 06:35:29;;;;;;;;;;;;;;;23.65;49.04;98298.75;5111423;28;19955;-60
2022/07/16 06:37:56;;;;;;;;;;;;;;;24.14;48.79;98293.31;5111367;28;19986;-61
2022/07/16 06:40:22;;;;;;;;;;;;;;;24.29;47.88;98294.59;5111143;28;19935;-60
2022/07/16 06:42:49;;;;;;;;;;;;;;;23.99;48.33;98292.06;5128380;27;19935;-60
2022/07/16 06:45:15;;;;;;;;;;;;;;;24.08;48.49;98306.38;5122985;28;19957;-60
2022/07/16 06:47:41;;;;;;;;;;;;;;;24.24;47.90;98303.00;5120711;28;19924;-60
2022/07/16 06:50:10;;;;;;;;;;;;;;;24.56;48.23;98297.38;5119527;28;19972;-61
2022/07/16 06:52:37;;;;;;;;;;;;;;;25.05;47.01;98302.72;5121074;28;19928;-60
2022/07/16 06:55:04;;;;;;;;;;;;;;;25.42;46.67;98309.59;5123001;28;19935;-60
2022/07/16 06:57:30;;;;;;;;;;;;;;;25.46;45.47;98304.22;5121965;28;19924;-61
2022/07/16 06:59:56;;;;;;;;;;;;;;;25.47;44.75;98314.81;5119424;28;19939;-61
2022/07/16 07:02:23;;;;;;;;;;;;;;;25.78;45.74;98305.84;5119393;28;19955;-61
2022/07/16 07:04:49;;;;;;;;;;;;;;;26.01;44.80;98300.56;5122776;28;19945;-62
2022/07/16 07:07:17;;;;;;;;;;;;;;;25.56;44.80;98310.00;5122495;28;19947;-61
2022/07/16 07:09:43;;;;;;;;;;;;;;;25.68;45.05;98299.00;5120233;28;19926;-60
2022/07/16 07:12:10;;;;;;;;;;;;;;;26.17;44.56;98301.38;5129084;27;19924;-60
2022/07/16 07:14:36;;;;;;;;;;;;;;;26.04;43.88;98305.34;5124638;27;19947;-61
2022/07/16 07:17:03;;;;;;;;;;;;;;;25.84;43.62;98303.69;5123170;27;19924;-63
2022/07/16 07:19:29;;;;;;;;;;;;;;;25.79;43.44;98302.00;5122408;28;19928;-60
2022/07/16 07:21:55;;;;;;;;;;;;;;;24.87;43.52;98304.16;5119709;28;19959;-63
2022/07/16 07:24:23;;;;;;;;;;;;;;;25.66;44.40;98301.28;5119619;28;19931;-61
2022/07/16 07:26:49;;;;;;;;;;;;;;;25.37;42.68;98306.34;5122844;28;19979;-61
2022/07/16 07:29:16;;;;;;;;;;;;;;;25.28;44.20;98308.44;5104864;28;19959;-60
2022/07/16 07:31:42;;;;;;;;;;;;;;;25.23;42.72;98310.25;5120431;28;19943;-60
2022/07/16 07:34:08;;;;;;;;;;;;;;;25.33;44.06;98306.22;5119242;28;19924;-60
2022/07/16 07:36:35;;;;;;;;;;;;;;;26.07;43.56;98301.88;5120559;28;19995;-60
2022/07/16 07:39:01;;;;;;;;;;;;;;;26.23;43.02;98302.69;5122612;28;19924;-61
2022/07/16 07:41:29;;;;;;;;;;;;;;;26.53;42.76;98305.72;5120874;28;19930;-62
2022/07/16 07:43:55;;;;;;;;;;;;;;;27.03;41.80;98302.09;5132964;27;20015;-61
2022/07/16 07:46:21;;;;;;;;;;;;;;;26.66;40.92;98299.75;5118841;28;19991;-61
2022/07/16 07:48:48;;;;;;;;;;;;;;;26.41;41.97;98295.69;5122221;28;19955;-61
2022/07/16 07:51:14;;;;;;;;;;;;;;;25.91;41.00;98292.88;5122254;28;19931;-60
2022/07/16 07:53:41;;;;;;;;;;;;;;;26.30;40.28;98289.94;5120197;28;19920;-63
2022/07/16 07:56:10;;;;;;;;;;;;;;;26.29;41.63;98285.63;5118982;28;19986;-61
2022/07/16 07:58:38;;;;;;;;;;;;;;;25.37;40.66;98295.41;5120446;28;20366;-60
2022/07/16 08:01:05;;;;;;;;;;;;;;;24.32;41.14;98291.19;5122407;28;19931;-61
2022/07/16 08:03:31;;;;;;;;;;;;;;;25.13;42.22;98285.34;5121247;28;19924;-60
2022/07/16 08:05:57;;;;;;;;;;;;;;;25.45;42.36;98281.56;5118660;28;20015;-61
2022/07/16 08:08:24;;;;;;;;;;;;;;;26.66;40.90;98275.09;5118234;28;19959;-60
2022/07/16 08:10:50;;;;;;;;;;;;;;;26.35;39.47;98272.47;5110323;28;19974;-60
2022/07/16 08:13:17;;;;;;;;;;;;;;;25.85;41.42;98277.88;5131284;27;20027;-59
2022/07/16 08:15:45;;;;;;;;;;;;;;;26.53;41.02;98279.13;5119101;28;19928;-61
2022/07/16 08:18:11;;;;;;;;;;;;;;;26.87;40.85;98280.25;5118385;28;19920;-61
2022/07/16 08:20:38;;;;;;;;;;;;;;;27.42;40.15;98284.44;5120204;28;19978;-60
2022/07/16 08:23:04;;;;;;;;;;;;;;;27.00;39.09;98272.69;5122039;28;19924;-60
2022/07/16 08:25:45;;;;;;;;;;;;;;;25.99;39.23;98280.97;5121075;28;19956;-59
2022/07/16 08:28:11;;;;;;;;;;;;;;;26.47;40.47;98274.28;5118371;28;19956;-60
2022/07/16 08:30:38;;;;;;;;;;;;;;;26.99;40.15;98282.84;5120084;28;19924;-61
2022/07/16 08:33:05;;;;;;;;;;;;;;;27.25;39.92;98269.25;5121944;28;20007;-60
2022/07/16 08:35:32;;;;;;;;;;;;;;;27.67;38.89;98272.00;5120718;28;19923;-61
2022/07/16 08:37:58;;;;;;;;;;;;;;;26.90;38.12;98268.56;5118342;28;19931;-62
2022/07/16 08:40:25;;;;;;;;;;;;;;;27.08;38.69;98277.16;5118383;28;19924;-60
2022/07/16 08:42:51;;;;;;;;;;;;;;;27.48;38.97;98276.75;5129286;28;19924;-60
2022/07/16 08:45:19;;;;;;;;;;;;;;;27.06;37.81;98272.03;5121796;28;19935;-60
2022/07/16 08:47:45;;;;;;;;;;;;;;;27.43;39.10;98285.28;5119262;28;19948;-61
2022/07/16 08:50:13;;;;;;;;;;;;;;;27.51;38.63;98274.09;5118302;28;19924;-62
2022/07/16 08:52:43;;;;;;;;;;;;;;;27.82;38.51;98271.06;5122113;28;19931;-61
2022/07/16 08:55:10;;;;;;;;;;;;;;;28.11;38.23;98277.03;5125790;28;19923;-60
2022/07/16 08:57:38;;;;;;;;;;;;;;;28.43;37.58;98270.06;5124002;28;19974;-61
2022/07/16 09:00:05;;;;;;;;;;;;;;;28.45;37.95;98275.97;5122148;28;19920;-61
2022/07/16 09:02:31;;;;;;;;;;;;;;;28.40;37.53;98287.28;5123137;28;19928;-61
2022/07/16 09:05:00;;;;;;;;;;;;;;;28.00;37.36;98287.03;5125592;28;19924;-61
2022/07/16 09:07:27;;;;;;;;;;;;;;;27.30;36.74;98273.66;5125184;28;19930;-60
2022/07/16 09:09:54;;;;;;;;;;;;;;;27.65;37.65;98293.53;5121961;28;19932;-61
2022/07/16 09:12:32;;;;;;;;;;;;;;;26.52;36.66;98283.00;5134733;27;19930;-60
2022/07/16 09:14:58;;;;;;;;;;;;;;;27.19;38.26;98298.13;5113516;28;19947;-60
2022/07/16 09:17:25;;;;;;;;;;;;;;;27.99;37.76;98305.47;5113288;28;19924;-60
2022/07/16 09:19:51;;;;;;;;;;;;;;;28.12;37.25;98298.66;5113410;28;20089;-61
2022/07/16 09:22:18;;;;;;;;;;;;;;;27.58;35.14;98287.91;5121678;28;19928;-61
2022/07/16 09:24:46;;;;;;;;;;;;;;;26.55;37.08;98306.16;5124232;28;19931;-61
2022/07/16 09:27:14;;;;;;;;;;;;;;;27.13;37.32;98299.59;5124866;28;19927;-59
2022/07/16 09:29:45;;;;;;;;;;;;;;;27.08;37.80;98296.34;5122803;28;20375;-60
2022/07/16 09:32:11;;;;;;;;;;;;;;;28.06;37.02;98291.88;5121452;28;19924;-60
2022/07/16 09:34:38;;;;;;;;;;;;;;;27.94;34.82;98281.06;5123084;28;19924;-61
2022/07/16 09:37:05;;;;;;;;;;;;;;;28.06;35.59;98289.16;5124768;28;19927;-61
2022/07/16 09:39:32;;;;;;;;;;;;;;;27.65;35.13;98288.03;5123533;28;19955;-61
2022/07/16 09:42:00;;;;;;;;;;;;;;;26.91;35.62;98286.59;5127921;27;20103;-60
2022/07/16 09:44:27;;;;;;;;;;;;;;;26.79;35.78;98287.53;5127845;27;19964;-61
2022/07/16 09:47:07;;;;;;;;;;;;;;;25.97;35.54;98286.00;5124600;28;19928;-61
2022/07/16 09:49:34;;;;;;;;;;;;;;;25.44;35.74;98287.38;5123183;28;19955;-61
2022/07/16 09:52:00;;;;;;;;;;;;;;;25.88;36.92;98288.13;5121020;28;19935;-61
2022/07/16 09:54:28;;;;;;;;;;;;;;;27.56;36.16;98290.22;5121152;28;19956;-61
2022/07/16 09:57:06;;;;;;;;;;;;;;;27.74;36.08;98288.59;5124305;28;19924;-61
2022/07/16 09:59:33;;;;;;;;;;;;;;;27.64;35.22;98286.44;5123050;28;19924;-60
2022/07/16 10:01:59;;;;;;;;;;;;;;;27.17;36.13;98291.44;5120968;28;19963;-62
2022/07/16 10:04:25;;;;;;;;;;;;;;;28.15;35.66;98288.88;5119512;28;19963;-61
2022/07/16 10:06:52;;;;;;;;;;;;;;;27.75;35.19;98276.47;5124024;28;19966;-60
2022/07/16 10:09:19;;;;;;;;;;;;;;;28.45;35.33;98283.41;5124203;28;19930;-59
2022/07/16 10:11:45;;;;;;;;;;;;;;;28.52;34.69;98289.03;5124011;27;19928;-60
2022/07/16 10:14:13;;;;;;;;;;;;;;;28.67;35.23;98274.34;5131699;27;19924;-61
2022/07/16 10:16:40;;;;;;;;;;;;;;;29.01;34.38;98284.19;5122725;28;19984;-60
2022/07/16 10:19:07;;;;;;;;;;;;;;;29.07;34.47;98279.13;5124124;28;19982;-62
2022/07/16 10:21:33;;;;;;;;;;;;;;;28.85;35.01;98270.66;5122947;28;19923;-61
2022/07/16 10:24:04;;;;;;;;;;;;;;;28.53;34.36;98280.41;5120573;28;19924;-61
2022/07/16 10:26:32;;;;;;;;;;;;;;;28.71;35.20;98283.44;5121096;28;19920;-60
2022/07/16 10:28:59;;;;;;;;;;;;;;;28.93;34.89;98275.09;5124076;28;19983;-61
2022/07/16 10:31:32;;;;;;;;;;;;;;;29.01;33.64;98275.94;5123769;28;19988;-61
2022/07/16 10:34:17;;;;;;;;;;;;;;;28.07;34.51;98267.97;5111854;28;19962;-61
2022/07/16 10:36:45;;;;;;;;;;;;;;;27.96;35.36;98269.72;5111721;28;19967;-60
2022/07/16 10:39:15;;;;;;;;;;;;;;;28.61;35.55;98267.56;5111684;28;19924;-60
2022/07/16 10:41:47;;;;;;;;;;;;;;;28.92;35.17;98262.50;5113449;27;19930;-60
2022/07/16 10:44:13;;;;;;;;;;;;;;;28.67;35.21;98268.84;5130829;27;19955;-60
2022/07/16 10:46:51;;;;;;;;;;;;;;;28.52;34.89;98265.09;5122274;28;19924;-61
2022/07/16 10:49:17;;;;;;;;;;;;;;;28.34;35.16;98258.56;5123597;28;19931;-60
2022/07/16 10:51:54;;;;;;;;;;;;;;;28.29;35.94;98253.38;5121136;28;19924;-61
2022/07/16 10:54:20;;;;;;;;;;;;;;;28.69;35.43;98253.56;5119957;28;19924;-61
2022/07/16 10:56:47;;;;;;;;;;;;;;;28.77;34.55;98260.75;5122590;28;20399;-62
2022/07/16 10:59:14;;;;;;;;;;;;;;;28.80;34.96;98251.75;5123112;28;20047;-60
2022/07/16 11:01:42;;;;;;;;;;;;;;;29.01;34.50;98256.69;5120725;28;19923;-62
2022/07/16 11:04:10;;;;;;;;;;;;;;;28.65;33.56;98250.00;5119547;28;20037;-61
2022/07/16 11:06:37;;;;;;;;;;;;;;;27.92;33.89;98263.38;5102774;28;19924;-61
2022/07/16 11:09:04;;;;;;;;;;;;;;;27.65;34.59;98252.38;5122891;28;19947;-61
2022/07/16 11:11:32;;;;;;;;;;;;;;;27.79;35.18;98249.06;5121986;28;19934;-60
2022/07/16 11:13:59;;;;;;;;;;;;;;;28.24;35.00;98250.94;5133477;27;19971;-60
2022/07/16 11:16:25;;;;;;;;;;;;;;;27.80;34.28;98256.94;5118980;28;19987;-60
2022/07/16 11:18:52;;;;;;;;;;;;;;;27.71;35.16;98259.13;5119152;28;19924;-61
2022/07/16 11:21:19;;;;;;;;;;;;;;;27.35;35.05;98263.19;5118969;28;19924;-61
2022/07/16 11:23:49;;;;;;;;;;;;;;;27.39;35.46;98267.94;5121992;28;19928;-61
2022/07/16 11:26:16;;;;;;;;;;;;;;;27.22;35.28;98263.72;5129351;28;19924;-61
2022/07/16 11:28:52;;;;;;;;;;;;;;;27.72;35.53;98262.66;5120067;28;19924;-60
2022/07/16 11:31:24;;;;;;;;;;;;;;;27.79;35.09;98269.06;5119009;28;19924;-60
2022/07/16 11:33:51;;;;;;;;;;;;;;;28.63;35.39;98265.22;5122609;28;19923;-61
2022/07/16 11:36:17;;;;;;;;;;;;;;;28.68;34.84;98275.94;5122534;28;19931;-60
2022/07/16 11:38:45;;;;;;;;;;;;;;;28.27;35.47;98266.69;5119778;28;19923;-61
2022/07/16 11:41:11;;;;;;;;;;;;;;;28.15;34.81;98273.19;5118992;28;19951;-60
2022/07/16 11:43:38;;;;;;;;;;;;;;;27.77;35.70;98276.88;5134163;27;19923;-61
2022/07/16 11:46:05;;;;;;;;;;;;;;;28.54;35.94;98272.94;5118959;28;19946;-62
2022/07/16 11:48:35;;;;;;;;;;;;;;;28.65;36.47;98269.22;5119467;28;19920;-60
2022/07/16 11:51:06;;;;;;;;;;;;;;;28.94;35.64;98270.34;5122151;28;19923;-61
2022/07/16 11:53:34;;;;;;;;;;;;;;;28.54;34.32;98261.94;5121002;28;19930;-62
2022/07/16 11:56:01;;;;;;;;;;;;;;;28.04;34.89;98274.94;5118676;28;20359;-61
2022/07/16 11:58:28;;;;;;;;;;;;;;;28.30;35.40;98265.94;5118906;28;19924;-62
2022/07/16 12:00:54;;;;;;;;;;;;;;;27.83;35.28;98267.16;5122297;28;19994;-60
2022/07/16 12:03:21;;;;;;;;;;;;;;;28.23;35.64;98263.09;5122136;28;19935;-60
2022/07/16 12:05:48;;;;;;;;;;;;;;;28.28;34.61;98271.03;5119012;28;19955;-61
2022/07/16 12:08:15;;;;;;;;;;;;;;;27.99;35.56;98282.69;5118480;28;19935;-61
2022/07/16 12:10:41;;;;;;;;;;;;;;;27.53;35.31;98269.00;5120777;28;19924;-62
2022/07/16 12:13:10;;;;;;;;;;;;;;;27.83;35.83;98267.16;5136121;27;19923;-61
2022/07/16 12:15:52;;;;;;;;;;;;;;;28.19;35.79;98274.06;5120362;28;19924;-61
2022/07/16 12:18:19;;;;;;;;;;;;;;;28.21;35.29;98268.97;5118486;28;19951;-61
2022/07/16 12:20:46;;;;;;;;;;;;;;;28.03;34.97;98280.81;5121384;28;19935;-61
2022/07/16 12:23:14;;;;;;;;;;;;;;;28.22;34.86;98264.28;5122001;28;19959;-61
2022/07/16 12:25:41;;;;;;;;;;;;;;;28.34;35.74;98275.03;5119761;28;19931;-62
2022/07/16 12:28:08;;;;;;;;;;;;;;;27.93;35.01;98281.44;5117643;28;19924;-60
2022/07/16 12:30:38;;;;;;;;;;;;;;;27.87;35.79;98283.69;5119472;28;20137;-60
2022/07/16 12:33:05;;;;;;;;;;;;;;;28.22;35.23;98283.50;5121844;28;19924;-61
2022/07/16 12:35:39;;;;;;;;;;;;;;;28.35;34.65;98277.41;5120135;28;19923;-65
2022/07/16 12:38:06;;;;;;;;;;;;;;;28.28;34.60;98273.78;5121730;28;19931;-61
2022/07/16 12:40:33;;;;;;;;;;;;;;;27.98;35.18;98270.91;5120677;28;19963;-61
2022/07/16 12:43:00;;;;;;;;;;;;;;;28.04;35.38;98266.69;5129880;27;19928;-61
2022/07/16 12:45:26;;;;;;;;;;;;;;;28.21;35.54;98262.69;5121469;28;19924;-61
2022/07/16 12:47:54;;;;;;;;;;;;;;;28.14;35.04;98265.31;5118065;28;19970;-61
2022/07/16 12:50:21;;;;;;;;;;;;;;;27.72;34.84;98268.97;5118290;28;20087;-60
2022/07/16 12:52:47;;;;;;;;;;;;;;;28.05;35.41;98265.59;5121224;28;19931;-60
2022/07/16 13:00:42;;;;;;;;;;;;;;;28.50;36.29;98267.44;5120097;28;19924;-61